Time;durP1;ratioP1;P1;durP2;ratioP2;P2;SDS_P1;SDS_P2;PMS_P1;PMS_P2;Temp;Humidity;BMP_temperature;BMP_pressure;BME280_temperature;BME280_humidity;BME280_pressure;Samples;Min_cycle;Max_cycle;Signal;HPM_P1;HPM_P2
2023/06/07 00:02:16;;;;;;;;;;;;;;;-144.98;100.00;62585.19;4864638;29;19972;-83
2023/06/07 00:05:21;;;;;;;;;;;;;;;-144.98;100.00;62585.19;4871199;29;19995;-83
2023/06/07 00:08:24;;;;;;;;;;;;;;;-144.98;100.00;62585.19;4882888;29;20003;-83
2023/06/07 00:11:27;;;;;;;;;;;;;;;-144.98;100.00;62585.19;4882732;29;19994;-84
2023/06/07 00:14:30;;;;;;;;;;;;;;;-144.98;100.00;62585.19;4882665;29;19923;-82
2023/06/07 00:17:33;;;;;;;;;;;;;;;-144.98;100.00;62585.19;4882965;29;19927;-84
2023/06/07 00:20:37;;;;;;;;;;;;;;;-144.98;100.00;62585.19;4882934;29;19923;-84
2023/06/07 00:23:40;;;;;;;;;;;;;;;-144.98;100.00;62585.19;4882546;29;19971;-82
2023/06/07 00:26:43;;;;;;;;;;;;;;;-144.98;100.00;62585.19;4882485;29;19962;-83
2023/06/07 00:29:46;;;;;;;;;;;;;;;-144.98;100.00;62585.19;4871012;29;20337;-82
2023/06/07 00:32:49;;;;;;;;;;;;;;;-144.98;100.00;62585.19;4870819;29;19927;-82
2023/06/07 00:35:55;;;;;;;;;;;;;;;-144.98;100.00;62585.19;4882370;29;19978;-86
2023/06/07 00:49:46;;;;;;;;;;;;;;;-144.98;100.00;62585.19;4882154;29;19972;-88
2023/06/07 00:53:02;;;;;;;;;;;;;;;-144.98;100.00;62585.19;4871047;29;19923;-84
2023/06/07 00:56:06;;;;;;;;;;;;;;;-144.98;100.00;62585.19;4881860;29;19948;-84
2023/06/07 00:59:09;;;;;;;;;;;;;;;-144.98;100.00;62585.19;4870376;29;20283;-83
2023/06/07 01:02:14;;;;;;;;;;;;;;;-144.98;100.00;62585.19;4870335;29;19983;-85
2023/06/07 01:05:20;;;;;;;;;;;;;;;-144.98;100.00;62585.19;4859378;29;19947;-84
2023/06/07 01:08:25;;;;;;;;;;;;;;;-144.98;100.00;62585.19;4881905;29;19990;-84
2023/06/07 01:11:28;;;;;;;;;;;;;;;-144.98;100.00;62585.19;4870150;29;20024;-85
2023/06/07 01:19:18;;;;;;;;;;;;;;;-144.98;100.00;62585.19;4881544;29;19935;-85
2023/06/07 01:22:27;;;;;;;;;;;;;;;-144.98;100.00;62585.19;4869992;29;19963;-84
2023/06/07 01:25:31;;;;;;;;;;;;;;;-144.98;100.00;62585.19;4881461;29;19922;-84
2023/06/07 01:28:37;;;;;;;;;;;;;;;-144.98;100.00;62585.19;4881395;29;19972;-83
2023/06/07 01:31:42;;;;;;;;;;;;;;;-144.98;100.00;62585.19;4881376;29;20345;-83
2023/06/07 01:34:46;;;;;;;;;;;;;;;-144.98;100.00;62585.19;4881218;29;19931;-83
2023/06/07 01:37:50;;;;;;;;;;;;;;;-144.98;100.00;62585.19;4869706;29;19971;-83
2023/06/07 01:40:54;;;;;;;;;;;;;;;-144.98;100.00;62585.19;4881199;29;20317;-84
2023/06/07 01:43:58;;;;;;;;;;;;;;;-144.98;100.00;62585.19;4859157;29;19938;-84
2023/06/07 01:47:01;;;;;;;;;;;;;;;-144.98;100.00;62585.19;4869636;29;19923;-84
2023/06/07 01:50:05;;;;;;;;;;;;;;;-144.98;100.00;62585.19;4881103;29;19984;-83
2023/06/07 01:53:09;;;;;;;;;;;;;;;-144.98;100.00;62585.19;4880980;29;19922;-84
2023/06/07 01:56:39;;;;;;;;;;;;;;;-144.98;100.00;62585.19;4880848;29;20341;-84
2023/06/07 02:00:22;;;;;;;;;;;;;;;-144.98;100.00;62585.19;4869190;29;19951;-85
2023/06/07 02:04:24;;;;;;;;;;;;;;;-144.98;100.00;62585.19;4880992;29;19931;-85
2023/06/07 02:07:44;;;;;;;;;;;;;;;-144.98;100.00;62585.19;4871146;29;19942;-84
2023/06/07 02:10:47;;;;;;;;;;;;;;;-144.98;100.00;62585.19;4880936;29;20039;-84
2023/06/07 02:13:51;;;;;;;;;;;;;;;-144.98;100.00;62585.19;4881006;29;19975;-84
2023/06/07 02:16:54;;;;;;;;;;;;;;;-144.98;100.00;62585.19;4868725;29;20531;-84
2023/06/07 02:19:58;;;;;;;;;;;;;;;-144.98;100.00;62585.19;4858697;29;20063;-84
2023/06/07 02:23:02;;;;;;;;;;;;;;;-144.98;100.00;62585.19;4869260;29;19922;-84
2023/06/07 02:26:05;;;;;;;;;;;;;;;-144.98;100.00;62585.19;4869088;29;19998;-83
2023/06/07 02:29:08;;;;;;;;;;;;;;;-144.98;100.00;62585.19;4880315;29;19931;-83
2023/06/07 02:32:11;;;;;;;;;;;;;;;-144.98;100.00;62585.19;4868879;29;19921;-83
2023/06/07 02:35:16;;;;;;;;;;;;;;;-144.98;100.00;62585.19;4880281;29;20392;-83
2023/06/07 02:38:19;;;;;;;;;;;;;;;-144.98;100.00;62585.19;4868814;29;19923;-83
2023/06/07 02:41:23;;;;;;;;;;;;;;;-144.98;100.00;62585.19;4868798;29;19970;-83
2023/06/07 02:44:25;;;;;;;;;;;;;;;-144.98;100.00;62585.19;4868708;29;19923;-83
2023/06/07 02:47:29;;;;;;;;;;;;;;;-144.98;100.00;62585.19;4868628;29;19922;-84
2023/06/07 02:50:32;;;;;;;;;;;;;;;-144.98;100.00;62585.19;4868586;29;19923;-83
2023/06/07 02:53:35;;;;;;;;;;;;;;;-144.98;100.00;62585.19;4880097;29;19927;-84
2023/06/07 02:56:39;;;;;;;;;;;;;;;-144.98;100.00;62585.19;4879941;29;19927;-84
2023/06/07 02:59:42;;;;;;;;;;;;;;;-144.98;100.00;62585.19;4868448;29;19970;-84
2023/06/07 03:02:47;;;;;;;;;;;;;;;-144.98;100.00;62585.19;4868422;29;19937;-84
2023/06/07 03:05:52;;;;;;;;;;;;;;;-144.98;100.00;62585.19;4868539;29;19930;-83
2023/06/07 03:08:56;;;;;;;;;;;;;;;-144.98;100.00;62585.19;4868242;29;20019;-83
2023/06/07 03:12:02;;;;;;;;;;;;;;;-144.98;100.00;62585.19;4868528;29;20548;-84
2023/06/07 03:15:13;;;;;;;;;;;;;;;-144.98;100.00;62585.19;4868205;29;19931;-84
2023/06/07 03:18:19;;;;;;;;;;;;;;;-144.98;100.00;62585.19;4868267;29;20399;-83
2023/06/07 03:21:30;;;;;;;;;;;;;;;-144.98;100.00;62585.19;4868166;29;19944;-84
2023/06/07 03:29:07;;;;;;;;;;;;;;;-144.98;100.00;62585.19;4868159;29;20288;-84
2023/06/07 03:32:14;;;;;;;;;;;;;;;-144.98;100.00;62585.19;4857890;29;19976;-84
2023/06/07 03:35:18;;;;;;;;;;;;;;;-144.98;100.00;62585.19;4879603;29;20292;-84
2023/06/07 03:38:22;;;;;;;;;;;;;;;-144.98;100.00;62585.19;4867949;29;20423;-84
2023/06/07 03:41:28;;;;;;;;;;;;;;;-144.98;100.00;62585.19;4867872;29;19923;-84
2023/06/07 03:44:35;;;;;;;;;;;;;;;-144.98;100.00;62585.19;4867907;29;19923;-83
2023/06/07 03:47:40;;;;;;;;;;;;;;;-144.98;100.00;62585.19;4867908;29;19923;-84
2023/06/07 03:50:43;;;;;;;;;;;;;;;-144.98;100.00;62585.19;4867873;29;20023;-84
2023/06/07 03:53:50;;;;;;;;;;;;;;;-144.98;100.00;62585.19;4867889;29;19923;-84
2023/06/07 03:56:52;;;;;;;;;;;;;;;-144.98;100.00;62585.19;4879348;29;19963;-83
2023/06/07 03:59:56;;;;;;;;;;;;;;;-144.98;100.00;62585.19;4867767;29;19923;-85
2023/06/07 04:03:02;;;;;;;;;;;;;;;-144.98;100.00;62585.19;4868020;29;19999;-84
2023/06/07 04:06:25;;;;;;;;;;;;;;;-144.98;100.00;62585.19;4870327;29;20366;-86
2023/06/07 04:09:29;;;;;;;;;;;;;;;-144.98;100.00;62585.19;4867626;29;20048;-76
2023/06/07 04:12:32;;;;;;;;;;;;;;;-144.98;100.00;62585.19;4867734;29;19923;-85
2023/06/07 04:15:37;;;;;;;;;;;;;;;-144.98;100.00;62585.19;4867685;29;19926;-81
2023/06/07 04:18:40;;;;;;;;;;;;;;;-144.98;100.00;62585.19;4867802;29;19922;-82
2023/06/07 04:22:22;;;;;;;;;;;;;;;-144.98;100.00;62585.19;4867598;29;19923;-83
2023/06/07 04:25:56;;;;;;;;;;;;;;;-144.98;100.00;62585.19;4867993;29;19971;-85
2023/06/07 04:29:05;;;;;;;;;;;;;;;-144.98;100.00;62585.19;4858783;29;19922;-81
2023/06/07 04:32:18;;;;;;;;;;;;;;;-144.98;100.00;62585.19;4879803;29;19923;-85
2023/06/07 04:35:23;;;;;;;;;;;;;;;-144.98;100.00;62585.19;4879210;29;19963;-84
2023/06/07 04:38:29;;;;;;;;;;;;;;;-144.98;100.00;62585.19;4868332;29;19923;-81
2023/06/07 04:41:37;;;;;;;;;;;;;;;-144.98;100.00;62585.19;4870878;29;19991;-83
2023/06/07 04:44:43;;;;;;;;;;;;;;;-144.98;100.00;62585.19;4870895;29;19926;-77
2023/06/07 04:47:52;;;;;;;;;;;;;;;-144.98;100.00;62585.19;4882317;29;20420;-82
2023/06/07 04:51:05;;;;;;;;;;;;;;;-144.98;100.00;62585.19;4882217;29;19926;-82
2023/06/07 04:54:16;;;;;;;;;;;;;;;-144.98;100.00;62585.19;4882214;29;19944;-84
2023/06/07 04:57:23;;;;;;;;;;;;;;;-144.98;100.00;62585.19;4870626;29;19926;-81
2023/06/07 05:00:29;;;;;;;;;;;;;;;-144.98;100.00;62585.19;4870501;29;19923;-80
2023/06/07 05:03:33;;;;;;;;;;;;;;;-144.98;100.00;62585.19;4870481;29;20408;-81
2023/06/07 05:06:37;;;;;;;;;;;;;;;-144.98;100.00;62585.19;4868586;29;20419;-82
2023/06/07 05:09:43;;;;;;;;;;;;;;;-144.98;100.00;62585.19;4869658;29;19963;-81
2023/06/07 05:12:46;;;;;;;;;;;;;;;-144.98;100.00;62585.19;4870458;29;19922;-83
2023/06/07 05:15:52;;;;;;;;;;;;;;;-144.98;100.00;62585.19;4870186;29;19927;-71
2023/06/07 05:18:56;;;;;;;;;;;;;;;-144.98;100.00;62585.19;4870100;29;19990;-82
2023/06/07 05:22:01;;;;;;;;;;;;;;;-144.98;100.00;62585.19;4870144;29;19922;-76
2023/06/07 05:25:11;;;;;;;;;;;;;;;-144.98;100.00;62585.19;4870528;29;19976;-78
2023/06/07 05:28:15;;;;;;;;;;;;;;;-144.98;100.00;62585.19;4870124;29;19923;-81
2023/06/07 05:31:26;;;;;;;;;;;;;;;-144.98;100.00;62585.19;4870048;29;19972;-85
2023/06/07 05:34:29;;;;;;;;;;;;;;;-144.98;100.00;62585.19;4859741;29;19922;-81
2023/06/07 05:37:33;;;;;;;;;;;;;;;-144.98;100.00;62585.19;4881423;29;19927;-81
2023/06/07 05:40:37;;;;;;;;;;;;;;;-144.98;100.00;62585.19;4869745;29;19922;-81
2023/06/07 05:43:42;;;;;;;;;;;;;;;-144.98;100.00;62585.19;4869725;29;19922;-81
2023/06/07 05:46:45;;;;;;;;;;;;;;;-144.98;100.00;62585.19;4869858;29;19979;-81
2023/06/07 05:49:48;;;;;;;;;;;;;;;-144.98;100.00;62585.19;4868774;29;19923;-81
2023/06/07 05:52:56;;;;;;;;;;;;;;;-144.98;100.00;62585.19;4869576;29;20388;-82
2023/06/07 05:55:59;;;;;;;;;;;;;;;-144.98;100.00;62585.19;4881024;29;19930;-82
2023/06/07 05:59:02;;;;;;;;;;;;;;;-144.98;100.00;62585.19;4881317;29;20395;-82
2023/06/07 06:02:06;;;;;;;;;;;;;;;-144.98;100.00;62585.19;4880956;29;19926;-82
2023/06/07 06:05:09;;;;;;;;;;;;;;;-144.98;100.00;62585.19;4881027;29;19923;-82
2023/06/07 06:08:15;;;;;;;;;;;;;;;-144.98;100.00;62585.19;4880920;29;19964;-82
2023/06/07 06:11:18;;;;;;;;;;;;;;;-144.98;100.00;62585.19;4869636;29;20437;-83
2023/06/07 06:14:22;;;;;;;;;;;;;;;-144.98;100.00;62585.19;4869478;29;20436;-82
2023/06/07 06:17:25;;;;;;;;;;;;;;;-144.98;100.00;62585.19;4868323;29;20352;-81
2023/06/07 06:20:28;;;;;;;;;;;;;;;-144.98;100.00;62585.19;4880657;29;20382;-79
2023/06/07 06:23:31;;;;;;;;;;;;;;;-144.98;100.00;62585.19;4880740;29;20281;-83
2023/06/07 06:26:34;;;;;;;;;;;;;;;-144.98;100.00;62585.19;4880508;29;19922;-84
2023/06/07 06:29:38;;;;;;;;;;;;;;;-144.98;100.00;62585.19;4880621;29;19923;-77
2023/06/07 06:32:41;;;;;;;;;;;;;;;-144.98;100.00;62585.19;4880396;29;19979;-77
2023/06/07 06:35:44;;;;;;;;;;;;;;;-144.98;100.00;62585.19;4880298;29;19947;-77
2023/06/07 06:38:47;;;;;;;;;;;;;;;-144.98;100.00;62585.19;4880346;29;19922;-77
2023/06/07 06:41:51;;;;;;;;;;;;;;;-144.98;100.00;62585.19;4880327;29;19922;-78
2023/06/07 06:45:04;;;;;;;;;;;;;;;-144.98;100.00;62585.19;4859328;29;19923;-79
2023/06/07 06:48:07;;;;;;;;;;;;;;;-144.98;100.00;62585.19;4880332;29;19922;-78
2023/06/07 06:51:11;;;;;;;;;;;;;;;-144.98;100.00;62585.19;4880495;29;19923;-79
2023/06/07 06:54:14;;;;;;;;;;;;;;;-144.98;100.00;62585.19;4880225;29;19923;-76
2023/06/07 06:57:17;;;;;;;;;;;;;;;-144.98;100.00;62585.19;4880066;29;20345;-81
2023/06/07 07:00:20;;;;;;;;;;;;;;;-144.98;100.00;62585.19;4879717;29;19923;-81
2023/06/07 07:03:26;;;;;;;;;;;;;;;-144.98;100.00;62585.19;4879941;29;19921;-77
2023/06/07 07:06:34;;;;;;;;;;;;;;;-144.98;100.00;62585.19;4879815;29;19926;-77
2023/06/07 07:09:38;;;;;;;;;;;;;;;-144.98;100.00;62585.19;4879777;29;19923;-82
2023/06/07 07:12:41;;;;;;;;;;;;;;;-144.98;100.00;62585.19;4879877;29;20399;-83
2023/06/07 07:15:44;;;;;;;;;;;;;;;-144.98;100.00;62585.19;4879629;29;20356;-75
2023/06/07 07:18:47;;;;;;;;;;;;;;;-144.98;100.00;62585.19;4879781;29;19954;-78
2023/06/07 07:21:51;;;;;;;;;;;;;;;-144.98;100.00;62585.19;4879722;29;19922;-79
2023/06/07 07:24:54;;;;;;;;;;;;;;;-144.98;100.00;62585.19;4879648;29;20352;-79
2023/06/07 07:27:58;;;;;;;;;;;;;;;-144.98;100.00;62585.19;4868161;29;19923;-80
2023/06/07 07:31:00;;;;;;;;;;;;;;;-144.98;100.00;62585.19;4879543;29;19966;-78
2023/06/07 07:34:04;;;;;;;;;;;;;;;-144.98;100.00;62585.19;4868062;29;19923;-79
2023/06/07 07:37:07;;;;;;;;;;;;;;;-144.98;100.00;62585.19;4879563;29;19930;-77
2023/06/07 07:40:12;;;;;;;;;;;;;;;-144.98;100.00;62585.19;4879469;29;20002;-77
2023/06/07 07:43:15;;;;;;;;;;;;;;;-144.98;100.00;62585.19;4879468;29;19922;-72
2023/06/07 07:46:18;;;;;;;;;;;;;;;-144.98;100.00;62585.19;4879410;29;19979;-75
2023/06/07 07:49:21;;;;;;;;;;;;;;;-144.98;100.00;62585.19;4879260;29;19922;-78
2023/06/07 07:52:24;;;;;;;;;;;;;;;-144.98;100.00;62585.19;4879451;29;20345;-74
2023/06/07 07:55:28;;;;;;;;;;;;;;;-144.98;100.00;62585.19;4879430;29;19926;-77
2023/06/07 07:58:34;;;;;;;;;;;;;;;-144.98;100.00;62585.19;4879382;29;19923;-74
2023/06/07 08:01:37;;;;;;;;;;;;;;;-144.98;100.00;62585.19;4879209;29;19974;-75
2023/06/07 08:04:40;;;;;;;;;;;;;;;-144.98;100.00;62585.19;4879101;29;19923;-75
2023/06/07 08:07:43;;;;;;;;;;;;;;;-144.98;100.00;62585.19;4879197;29;19927;-74
2023/06/07 08:10:47;;;;;;;;;;;;;;;-144.98;100.00;62585.19;4879293;29;19937;-72
2023/06/07 08:13:50;;;;;;;;;;;;;;;-144.98;100.00;62585.19;4880564;29;20300;-73
2023/06/07 08:16:53;;;;;;;;;;;;;;;-144.98;100.00;62585.19;4882685;29;19986;-72
2023/06/07 08:19:57;;;;;;;;;;;;;;;-144.98;100.00;62585.19;4882783;29;19923;-72
2023/06/07 08:23:00;;;;;;;;;;;;;;;-144.98;100.00;62585.19;4882585;29;20292;-72
2023/06/07 08:26:06;;;;;;;;;;;;;;;-144.98;100.00;62585.19;4882639;29;19922;-72
2023/06/07 08:29:09;;;;;;;;;;;;;;;-144.98;100.00;62585.19;4882705;29;20003;-73
2023/06/07 08:32:12;;;;;;;;;;;;;;;-144.98;100.00;62585.19;4882568;29;19923;-73
2023/06/07 08:35:15;;;;;;;;;;;;;;;-144.98;100.00;62585.19;4882278;29;19926;-72
2023/06/07 08:38:18;;;;;;;;;;;;;;;-144.98;100.00;62585.19;4882314;29;19998;-71
2023/06/07 08:41:21;;;;;;;;;;;;;;;-144.98;100.00;62585.19;4863728;29;19944;-74
2023/06/07 08:44:26;;;;;;;;;;;;;;;-144.98;100.00;62585.19;4863717;29;19922;-74
2023/06/07 08:47:30;;;;;;;;;;;;;;;-144.98;100.00;62585.19;4882297;29;20432;-76
2023/06/07 08:50:36;;;;;;;;;;;;;;;-144.98;100.00;62585.19;4882076;29;20424;-73
2023/06/07 08:53:47;;;;;;;;;;;;;;;-144.98;100.00;62585.19;4882107;29;19922;-74
2023/06/07 08:56:50;;;;;;;;;;;;;;;-144.98;100.00;62585.19;4870405;29;20396;-73
2023/06/07 08:59:53;;;;;;;;;;;;;;;-144.98;100.00;62585.19;4881663;29;20022;-74
2023/06/07 09:02:56;;;;;;;;;;;;;;;-144.98;100.00;62585.19;4882165;29;20007;-76
2023/06/07 09:06:00;;;;;;;;;;;;;;;-144.98;100.00;62585.19;4881888;29;19926;-79
2023/06/07 09:09:04;;;;;;;;;;;;;;;-144.98;100.00;62585.19;4882017;29;19939;-77
2023/06/07 09:12:07;;;;;;;;;;;;;;;-144.98;100.00;62585.19;4882078;29;20280;-78
2023/06/07 09:15:16;;;;;;;;;;;;;;;-144.98;100.00;62585.19;4881641;29;19974;-78
2023/06/07 09:18:20;;;;;;;;;;;;;;;-144.98;100.00;62585.19;4870492;29;19926;-79
2023/06/07 09:21:26;;;;;;;;;;;;;;;-144.98;100.00;62585.19;4870046;29;19923;-77
2023/06/07 09:24:30;;;;;;;;;;;;;;;-144.98;100.00;62585.19;4881510;29;19922;-79
2023/06/07 09:27:33;;;;;;;;;;;;;;;-144.98;100.00;62585.19;4881908;29;19989;-85
2023/06/07 09:31:11;;;;;;;;;;;;;;;-144.98;100.00;62585.19;4881747;29;20508;-81
2023/06/07 09:34:21;;;;;;;;;;;;;;;-144.98;100.00;62585.19;4870290;29;20288;-80
2023/06/07 09:37:45;;;;;;;;;;;;;;;-144.98;100.00;62585.19;4881616;29;20308;-79
2023/06/07 09:40:55;;;;;;;;;;;;;;;-144.98;100.00;62585.19;4880457;29;19923;-80
2023/06/07 09:44:01;;;;;;;;;;;;;;;-144.98;100.00;62585.19;4880713;29;20333;-80
2023/06/07 09:47:15;;;;;;;;;;;;;;;;;;;;;
2023/06/07 09:50:26;;;;;;;;;;;;;;;-144.98;100.00;62585.19;4881238;29;19942;-79
2023/06/07 09:53:47;;;;;;;;;;;;;;;-144.98;100.00;62585.19;4881067;29;19962;-80
2023/06/07 09:56:53;;;;;;;;;;;;;;;-144.98;100.00;62585.19;4880956;29;20315;-80
2023/06/07 10:00:13;;;;;;;;;;;;;;;-144.98;100.00;62585.19;4880840;29;19922;-82
2023/06/07 10:03:19;;;;;;;;;;;;;;;-144.98;100.00;62585.19;4880940;29;19940;-80
2023/06/07 10:06:45;;;;;;;;;;;;;;;-144.98;100.00;62585.19;4880547;29;19926;-81
2023/06/07 10:15:52;;;;;;;;;;;;;;;;;;;;;
2023/06/07 11:01:54;;;;;;;;;;;;;;;;;;;;;
2023/06/07 11:30:23;;;;;;;;;;;;;;;;;;;;;
2023/06/07 11:44:25;;;;;;;;;;;;;;;-144.98;100.00;62585.19;4768022;30;19975;-80
2023/06/07 12:17:17;;;;;;;;;;;;;;;-144.98;100.00;62585.19;4825374;29;19993;-80
2023/06/07 12:21:21;;;;;;;;;;;;;;;-144.98;100.00;62585.19;4817878;29;19954;-76
2023/06/07 12:24:24;;;;;;;;;;;;;;;-144.98;100.00;62585.19;4828769;29;19922;-73
2023/06/07 12:27:29;;;;;;;;;;;;;;;-144.98;100.00;62585.19;4845689;29;19923;-73
2023/06/07 12:30:33;;;;;;;;;;;;;;;-144.98;100.00;62585.19;4845577;29;19923;-71
2023/06/07 12:33:37;;;;;;;;;;;;;;;-144.98;100.00;62585.19;4845601;29;20387;-67
2023/06/07 12:36:40;;;;;;;;;;;;;;;-144.98;100.00;62585.19;4844566;29;19927;-67
2023/06/07 12:39:43;;;;;;;;;;;;;;;-144.98;100.00;62585.19;4845358;29;19923;-67
2023/06/07 12:42:48;;;;;;;;;;;;;;;-144.98;100.00;62585.19;4834198;29;19923;-68
2023/06/07 13:13:15;;;;;;;;;;;;;;;-144.98;100.00;62585.19;4879286;29;20288;-77
2023/06/07 13:16:57;;;;;;;;;;;;;;;-144.98;100.00;62585.19;4878276;29;19927;-80
2023/06/07 13:20:04;;;;;;;;;;;;;;;-144.98;100.00;62585.19;4879233;29;20312;-79
2023/06/07 13:23:42;;;;;;;;;;;;;;;-144.98;100.00;62585.19;4879684;29;19923;-83
2023/06/07 13:28:20;;;;;;;;;;;;;;;-144.98;100.00;62585.19;4879435;29;19963;-81
2023/06/07 13:31:28;;;;;;;;;;;;;;;-144.98;100.00;62585.19;4869233;29;19971;-79
2023/06/07 13:34:58;;;;;;;;;;;;;;;-144.98;100.00;62585.19;4881342;29;19944;-85
2023/06/07 18:35:12;;;;;;;;;;;;;;;-144.98;100.00;62585.19;4733633;30;19926;-81
2023/06/07 18:44:05;;;;;;;;;;;;;;;-144.98;100.00;62585.19;4681362;30;19926;-78
2023/06/07 19:49:31;;;;;;;;;;;;;;;;;;;;;
2023/06/07 19:53:58;;;;;;;;;;;;;;;-144.98;100.00;62585.19;4724377;30;19925;-82
2023/06/07 20:08:08;;;;;;;;;;;;;;;;;;;;;
2023/06/07 20:12:41;;;;;;;;;;;;;;;;;;;;;
2023/06/07 20:16:04;;;;;;;;;;;;;;;-144.98;100.00;62585.19;4688990;30;20418;-79
2023/06/07 20:20:05;;;;;;;;;;;;;;;-144.98;100.00;62585.19;4688279;30;20419;-81
2023/06/07 20:24:39;;;;;;;;;;;;;;;-144.98;100.00;62585.19;4699993;30;19970;-82
2023/06/07 20:33:45;;;;;;;;;;;;;;;-144.98;100.00;62585.19;4708875;30;19926;-82
2023/06/07 20:36:51;;;;;;;;;;;;;;;-144.98;100.00;62585.19;4703234;30;19930;-83
2023/06/07 20:39:54;;;;;;;;;;;;;;;-144.98;100.00;62585.19;4745538;30;19925;-80
2023/06/07 20:42:58;;;;;;;;;;;;;;;-144.98;100.00;62585.19;4769424;30;19929;-81
2023/06/07 20:46:01;;;;;;;;;;;;;;;-144.98;100.00;62585.19;4769800;30;19925;-82
2023/06/07 20:54:04;;;;;;;;;;;;;;;-144.98;100.00;62585.19;4759752;30;20331;-83
